sensor_id;sensor_type;location;lat;lon;timestamp;P1;durP1;ratioP1;P2;durP2;ratioP2
22814;SDS011;11574;51.058;13.712;2023-06-22T00:04:10;14.00;;;8.37;;
22814;SDS011;11574;51.058;13.712;2023-06-22T00:09:12;11.97;;;7.40;;
22814;SDS011;11574;51.058;13.712;2023-06-22T00:14:16;12.27;;;7.70;;
22814;SDS011;11574;51.058;13.712;2023-06-22T00:19:18;12.10;;;7.60;;
22814;SDS011;11574;51.058;13.712;2023-06-22T00:24:21;17.80;;;7.83;;
22814;SDS011;11574;51.058;13.712;2023-06-22T00:29:25;8.53;;;7.30;;
22814;SDS011;11574;51.058;13.712;2023-06-22T00:34:27;10.67;;;8.17;;
22814;SDS011;11574;51.058;13.712;2023-06-22T00:39:30;12.17;;;7.97;;
22814;SDS011;11574;51.058;13.712;2023-06-22T00:44:34;11.17;;;8.30;;
22814;SDS011;11574;51.058;13.712;2023-06-22T00:49:38;12.53;;;7.97;;
22814;SDS011;11574;51.058;13.712;2023-06-22T00:54:40;11.10;;;7.50;;
22814;SDS011;11574;51.058;13.712;2023-06-22T00:59:47;13.93;;;9.07;;
22814;SDS011;11574;51.058;13.712;2023-06-22T01:04:50;11.67;;;8.67;;
22814;SDS011;11574;51.058;13.712;2023-06-22T01:09:54;10.17;;;8.93;;
22814;SDS011;11574;51.058;13.712;2023-06-22T01:15:02;11.13;;;8.70;;
22814;SDS011;11574;51.058;13.712;2023-06-22T01:20:06;12.17;;;9.33;;
22814;SDS011;11574;51.058;13.712;2023-06-22T01:25:13;13.97;;;10.33;;
22814;SDS011;11574;51.058;13.712;2023-06-22T01:30:19;12.00;;;9.17;;
22814;SDS011;11574;51.058;13.712;2023-06-22T01:35:21;11.03;;;8.87;;
22814;SDS011;11574;51.058;13.712;2023-06-22T01:40:23;10.47;;;8.53;;
22814;SDS011;11574;51.058;13.712;2023-06-22T01:45:28;13.90;;;9.00;;
22814;SDS011;11574;51.058;13.712;2023-06-22T01:50:30;14.20;;;8.80;;
22814;SDS011;11574;51.058;13.712;2023-06-22T01:55:32;13.17;;;9.07;;
22814;SDS011;11574;51.058;13.712;2023-06-22T02:00:36;11.40;;;9.13;;
22814;SDS011;11574;51.058;13.712;2023-06-22T02:05:41;14.30;;;8.50;;
22814;SDS011;11574;51.058;13.712;2023-06-22T02:10:45;12.90;;;9.10;;
22814;SDS011;11574;51.058;13.712;2023-06-22T02:15:49;11.67;;;9.23;;
22814;SDS011;11574;51.058;13.712;2023-06-22T02:20:51;12.37;;;9.47;;
22814;SDS011;11574;51.058;13.712;2023-06-22T02:25:53;12.93;;;9.73;;
22814;SDS011;11574;51.058;13.712;2023-06-22T02:30:57;13.23;;;10.10;;
22814;SDS011;11574;51.058;13.712;2023-06-22T02:35:59;11.07;;;9.07;;
22814;SDS011;11574;51.058;13.712;2023-06-22T02:41:05;11.50;;;9.23;;
22814;SDS011;11574;51.058;13.712;2023-06-22T02:46:08;11.63;;;8.77;;
22814;SDS011;11574;51.058;13.712;2023-06-22T02:51:11;14.73;;;9.67;;
22814;SDS011;11574;51.058;13.712;2023-06-22T02:56:13;12.90;;;9.07;;
22814;SDS011;11574;51.058;13.712;2023-06-22T03:01:17;13.67;;;9.50;;
22814;SDS011;11574;51.058;13.712;2023-06-22T03:06:23;10.77;;;8.57;;
22814;SDS011;11574;51.058;13.712;2023-06-22T03:11:28;11.50;;;8.93;;
22814;SDS011;11574;51.058;13.712;2023-06-22T03:16:32;12.60;;;8.77;;
22814;SDS011;11574;51.058;13.712;2023-06-22T03:21:34;11.47;;;8.40;;
22814;SDS011;11574;51.058;13.712;2023-06-22T03:26:37;14.63;;;9.43;;
22814;SDS011;11574;51.058;13.712;2023-06-22T03:31:40;11.00;;;9.67;;
22814;SDS011;11574;51.058;13.712;2023-06-22T03:36:43;15.87;;;8.83;;
22814;SDS011;11574;51.058;13.712;2023-06-22T03:41:46;14.30;;;8.73;;
22814;SDS011;11574;51.058;13.712;2023-06-22T03:46:49;10.93;;;8.20;;
22814;SDS011;11574;51.058;13.712;2023-06-22T03:51:52;12.10;;;9.13;;
22814;SDS011;11574;51.058;13.712;2023-06-22T03:56:54;11.40;;;9.20;;
22814;SDS011;11574;51.058;13.712;2023-06-22T04:01:57;10.60;;;7.83;;
22814;SDS011;11574;51.058;13.712;2023-06-22T04:07:00;13.17;;;8.97;;
22814;SDS011;11574;51.058;13.712;2023-06-22T04:12:02;10.30;;;7.80;;
22814;SDS011;11574;51.058;13.712;2023-06-22T04:17:05;11.30;;;9.15;;
22814;SDS011;11574;51.058;13.712;2023-06-22T04:22:08;14.25;;;8.63;;
22814;SDS011;11574;51.058;13.712;2023-06-22T04:27:10;11.63;;;8.85;;
22814;SDS011;11574;51.058;13.712;2023-06-22T04:32:14;9.48;;;8.25;;
22814;SDS011;11574;51.058;13.712;2023-06-22T04:37:16;8.60;;;7.70;;
22814;SDS011;11574;51.058;13.712;2023-06-22T04:42:18;9.85;;;8.02;;
22814;SDS011;11574;51.058;13.712;2023-06-22T04:47:22;9.90;;;7.43;;
22814;SDS011;11574;51.058;13.712;2023-06-22T04:52:24;12.27;;;7.70;;
22814;SDS011;11574;51.058;13.712;2023-06-22T04:57:26;9.70;;;7.15;;
22814;SDS011;11574;51.058;13.712;2023-06-22T05:02:33;9.40;;;8.05;;
22814;SDS011;11574;51.058;13.712;2023-06-22T05:07:35;11.05;;;8.55;;
22814;SDS011;11574;51.058;13.712;2023-06-22T05:12:39;10.27;;;8.40;;
22814;SDS011;11574;51.058;13.712;2023-06-22T05:17:45;9.43;;;7.13;;
22814;SDS011;11574;51.058;13.712;2023-06-22T05:22:47;9.98;;;7.43;;
22814;SDS011;11574;51.058;13.712;2023-06-22T05:27:49;10.52;;;7.78;;
22814;SDS011;11574;51.058;13.712;2023-06-22T05:32:53;11.70;;;8.20;;
22814;SDS011;11574;51.058;13.712;2023-06-22T05:37:55;9.98;;;7.25;;
22814;SDS011;11574;51.058;13.712;2023-06-22T05:42:57;11.25;;;8.27;;
22814;SDS011;11574;51.058;13.712;2023-06-22T05:48:02;11.68;;;8.35;;
22814;SDS011;11574;51.058;13.712;2023-06-22T05:53:04;13.48;;;8.38;;
22814;SDS011;11574;51.058;13.712;2023-06-22T05:58:07;8.90;;;7.22;;
22814;SDS011;11574;51.058;13.712;2023-06-22T06:03:10;8.77;;;7.88;;
22814;SDS011;11574;51.058;13.712;2023-06-22T06:08:12;13.45;;;7.05;;
22814;SDS011;11574;51.058;13.712;2023-06-22T06:13:15;8.27;;;7.18;;
22814;SDS011;11574;51.058;13.712;2023-06-22T06:18:18;11.15;;;7.63;;
22814;SDS011;11574;51.058;13.712;2023-06-22T06:23:20;10.18;;;7.50;;
22814;SDS011;11574;51.058;13.712;2023-06-22T06:28:24;13.75;;;7.50;;
22814;SDS011;11574;51.058;13.712;2023-06-22T06:33:28;13.50;;;7.70;;
22814;SDS011;11574;51.058;13.712;2023-06-22T06:38:31;12.98;;;8.10;;
22814;SDS011;11574;51.058;13.712;2023-06-22T06:43:33;10.70;;;7.55;;
22814;SDS011;11574;51.058;13.712;2023-06-22T06:48:37;14.20;;;8.60;;
22814;SDS011;11574;51.058;13.712;2023-06-22T06:53:39;10.80;;;8.77;;
22814;SDS011;11574;51.058;13.712;2023-06-22T06:58:41;9.52;;;7.35;;
22814;SDS011;11574;51.058;13.712;2023-06-22T07:03:46;11.80;;;7.45;;
22814;SDS011;11574;51.058;13.712;2023-06-22T07:08:48;9.23;;;7.47;;
22814;SDS011;11574;51.058;13.712;2023-06-22T07:13:50;10.10;;;7.63;;
22814;SDS011;11574;51.058;13.712;2023-06-22T07:18:54;8.57;;;7.57;;
22814;SDS011;11574;51.058;13.712;2023-06-22T07:23:56;11.48;;;7.53;;
22814;SDS011;11574;51.058;13.712;2023-06-22T07:28:58;15.88;;;8.80;;
22814;SDS011;11574;51.058;13.712;2023-06-22T07:34:02;8.00;;;7.25;;
22814;SDS011;11574;51.058;13.712;2023-06-22T07:39:04;12.13;;;7.70;;
22814;SDS011;11574;51.058;13.712;2023-06-22T07:44:07;10.65;;;7.78;;
22814;SDS011;11574;51.058;13.712;2023-06-22T07:49:10;8.90;;;7.40;;
22814;SDS011;11574;51.058;13.712;2023-06-22T07:54:12;11.30;;;7.30;;
22814;SDS011;11574;51.058;13.712;2023-06-22T07:59:15;9.43;;;7.72;;
22814;SDS011;11574;51.058;13.712;2023-06-22T08:04:19;10.48;;;6.93;;
22814;SDS011;11574;51.058;13.712;2023-06-22T08:09:21;8.75;;;7.07;;
22814;SDS011;11574;51.058;13.712;2023-06-22T08:14:24;9.38;;;6.60;;
22814;SDS011;11574;51.058;13.712;2023-06-22T08:19:28;7.93;;;6.25;;
22814;SDS011;11574;51.058;13.712;2023-06-22T08:24:30;9.52;;;6.50;;
22814;SDS011;11574;51.058;13.712;2023-06-22T08:29:32;7.75;;;6.50;;
22814;SDS011;11574;51.058;13.712;2023-06-22T08:34:36;8.95;;;7.00;;
22814;SDS011;11574;51.058;13.712;2023-06-22T08:39:42;6.05;;;5.45;;
22814;SDS011;11574;51.058;13.712;2023-06-22T08:44:44;8.57;;;6.32;;
22814;SDS011;11574;51.058;13.712;2023-06-22T08:49:47;6.55;;;5.82;;
22814;SDS011;11574;51.058;13.712;2023-06-22T08:54:50;11.50;;;6.18;;
22814;SDS011;11574;51.058;13.712;2023-06-22T08:59:52;5.85;;;5.35;;
22814;SDS011;11574;51.058;13.712;2023-06-22T09:05:03;9.40;;;5.85;;
22814;SDS011;11574;51.058;13.712;2023-06-22T09:10:06;6.35;;;5.75;;
22814;SDS011;11574;51.058;13.712;2023-06-22T09:15:09;9.95;;;5.80;;
22814;SDS011;11574;51.058;13.712;2023-06-22T09:20:12;8.75;;;6.05;;
22814;SDS011;11574;51.058;13.712;2023-06-22T09:25:15;5.97;;;5.38;;
22814;SDS011;11574;51.058;13.712;2023-06-22T09:30:17;7.35;;;5.70;;
22814;SDS011;11574;51.058;13.712;2023-06-22T09:35:20;7.85;;;5.68;;
22814;SDS011;11574;51.058;13.712;2023-06-22T09:40:23;6.75;;;6.05;;
22814;SDS011;11574;51.058;13.712;2023-06-22T09:45:25;7.25;;;6.40;;
22814;SDS011;11574;51.058;13.712;2023-06-22T09:50:28;6.78;;;6.00;;
22814;SDS011;11574;51.058;13.712;2023-06-22T09:55:30;9.10;;;6.60;;
22814;SDS011;11574;51.058;13.712;2023-06-22T10:00:33;8.13;;;6.38;;
22814;SDS011;11574;51.058;13.712;2023-06-22T10:05:36;6.50;;;5.50;;
22814;SDS011;11574;51.058;13.712;2023-06-22T10:10:38;7.80;;;5.75;;
22814;SDS011;11574;51.058;13.712;2023-06-22T10:15:41;8.20;;;5.80;;
22814;SDS011;11574;51.058;13.712;2023-06-22T10:20:47;8.00;;;6.00;;
22814;SDS011;11574;51.058;13.712;2023-06-22T10:25:51;10.30;;;6.75;;
22814;SDS011;11574;51.058;13.712;2023-06-22T10:30:53;11.35;;;6.20;;
22814;SDS011;11574;51.058;13.712;2023-06-22T10:35:57;8.82;;;6.57;;
22814;SDS011;11574;51.058;13.712;2023-06-22T10:40:59;8.35;;;6.28;;
22814;SDS011;11574;51.058;13.712;2023-06-22T10:46:01;8.57;;;6.75;;
22814;SDS011;11574;51.058;13.712;2023-06-22T10:51:05;6.93;;;6.22;;
22814;SDS011;11574;51.058;13.712;2023-06-22T10:56:07;8.32;;;5.97;;
22814;SDS011;11574;51.058;13.712;2023-06-22T11:01:09;9.20;;;6.82;;
22814;SDS011;11574;51.058;13.712;2023-06-22T11:06:13;7.55;;;6.75;;
22814;SDS011;11574;51.058;13.712;2023-06-22T11:11:15;6.97;;;6.25;;
22814;SDS011;11574;51.058;13.712;2023-06-22T11:16:18;7.25;;;6.18;;
22814;SDS011;11574;51.058;13.712;2023-06-22T11:21:21;7.68;;;5.60;;
22814;SDS011;11574;51.058;13.712;2023-06-22T11:26:24;8.50;;;6.68;;
22814;SDS011;11574;51.058;13.712;2023-06-22T11:31:27;7.00;;;6.30;;
22814;SDS011;11574;51.058;13.712;2023-06-22T11:36:30;7.90;;;5.82;;
22814;SDS011;11574;51.058;13.712;2023-06-22T11:41:35;8.27;;;6.45;;
22814;SDS011;11574;51.058;13.712;2023-06-22T11:46:38;9.20;;;6.53;;
22814;SDS011;11574;51.058;13.712;2023-06-22T11:51:42;6.53;;;5.93;;
22814;SDS011;11574;51.058;13.712;2023-06-22T11:56:44;8.15;;;6.10;;
22814;SDS011;11574;51.058;13.712;2023-06-22T12:01:46;7.50;;;6.28;;
22814;SDS011;11574;51.058;13.712;2023-06-22T12:06:51;11.27;;;7.05;;
22814;SDS011;11574;51.058;13.712;2023-06-22T12:11:54;7.00;;;6.25;;
22814;SDS011;11574;51.058;13.712;2023-06-22T12:16:56;9.48;;;6.65;;
22814;SDS011;11574;51.058;13.712;2023-06-22T12:21:59;7.15;;;6.40;;
22814;SDS011;11574;51.058;13.712;2023-06-22T12:27:02;9.05;;;6.15;;
22814;SDS011;11574;51.058;13.712;2023-06-22T12:32:04;9.50;;;6.70;;
22814;SDS011;11574;51.058;13.712;2023-06-22T12:37:08;7.28;;;6.53;;
22814;SDS011;11574;51.058;13.712;2023-06-22T12:42:10;7.75;;;6.30;;
22814;SDS011;11574;51.058;13.712;2023-06-22T12:47:12;7.00;;;6.28;;
22814;SDS011;11574;51.058;13.712;2023-06-22T12:52:16;10.00;;;6.30;;
22814;SDS011;11574;51.058;13.712;2023-06-22T12:57:18;7.97;;;7.15;;
22814;SDS011;11574;51.058;13.712;2023-06-22T13:02:20;6.95;;;6.25;;
22814;SDS011;11574;51.058;13.712;2023-06-22T13:07:24;7.72;;;6.40;;
22814;SDS011;11574;51.058;13.712;2023-06-22T13:12:26;6.68;;;5.68;;
22814;SDS011;11574;51.058;13.712;2023-06-22T13:17:28;6.72;;;5.93;;
22814;SDS011;11574;51.058;13.712;2023-06-22T13:22:32;7.80;;;6.35;;
22814;SDS011;11574;51.058;13.712;2023-06-22T13:27:39;7.28;;;6.18;;
22814;SDS011;11574;51.058;13.712;2023-06-22T13:32:42;11.25;;;6.82;;
22814;SDS011;11574;51.058;13.712;2023-06-22T13:37:45;7.38;;;5.75;;
22814;SDS011;11574;51.058;13.712;2023-06-22T13:42:47;6.55;;;5.70;;
22814;SDS011;11574;51.058;13.712;2023-06-22T13:47:50;7.50;;;6.65;;
22814;SDS011;11574;51.058;13.712;2023-06-22T13:52:53;9.52;;;6.22;;
22814;SDS011;11574;51.058;13.712;2023-06-22T13:57:55;10.23;;;6.22;;
22814;SDS011;11574;51.058;13.712;2023-06-22T14:02:58;6.95;;;6.22;;
22814;SDS011;11574;51.058;13.712;2023-06-22T14:08:01;6.97;;;6.28;;
22814;SDS011;11574;51.058;13.712;2023-06-22T14:13:04;7.65;;;6.60;;
22814;SDS011;11574;51.058;13.712;2023-06-22T14:18:06;7.90;;;6.35;;
22814;SDS011;11574;51.058;13.712;2023-06-22T14:23:10;7.57;;;6.20;;
22814;SDS011;11574;51.058;13.712;2023-06-22T14:28:12;7.68;;;6.53;;
22814;SDS011;11574;51.058;13.712;2023-06-22T14:33:16;10.30;;;6.50;;
22814;SDS011;11574;51.058;13.712;2023-06-22T14:38:20;7.65;;;6.85;;
22814;SDS011;11574;51.058;13.712;2023-06-22T14:43:22;9.77;;;6.70;;
22814;SDS011;11574;51.058;13.712;2023-06-22T14:48:25;8.63;;;6.80;;
22814;SDS011;11574;51.058;13.712;2023-06-22T14:53:30;12.50;;;6.63;;
22814;SDS011;11574;51.058;13.712;2023-06-22T14:58:35;10.45;;;6.50;;
22814;SDS011;11574;51.058;13.712;2023-06-22T15:03:37;9.05;;;6.78;;
22814;SDS011;11574;51.058;13.712;2023-06-22T15:08:40;14.27;;;7.00;;
22814;SDS011;11574;51.058;13.712;2023-06-22T15:13:43;16.20;;;6.90;;
22814;SDS011;11574;51.058;13.712;2023-06-22T15:18:45;8.55;;;6.78;;
22814;SDS011;11574;51.058;13.712;2023-06-22T15:23:50;9.88;;;6.80;;
22814;SDS011;11574;51.058;13.712;2023-06-22T15:28:52;9.45;;;6.57;;
22814;SDS011;11574;51.058;13.712;2023-06-22T15:33:55;8.07;;;7.00;;
22814;SDS011;11574;51.058;13.712;2023-06-22T15:38:58;9.77;;;6.85;;
22814;SDS011;11574;51.058;13.712;2023-06-22T15:44:00;8.25;;;7.00;;
22814;SDS011;11574;51.058;13.712;2023-06-22T15:49:02;8.77;;;6.72;;
22814;SDS011;11574;51.058;13.712;2023-06-22T15:54:07;8.40;;;7.05;;
22814;SDS011;11574;51.058;13.712;2023-06-22T15:59:09;10.95;;;7.38;;
22814;SDS011;11574;51.058;13.712;2023-06-22T16:04:11;8.60;;;7.13;;
22814;SDS011;11574;51.058;13.712;2023-06-22T16:09:15;10.32;;;6.90;;
22814;SDS011;11574;51.058;13.712;2023-06-22T16:14:17;8.07;;;6.95;;
22814;SDS011;11574;51.058;13.712;2023-06-22T16:19:19;8.93;;;8.02;;
22814;SDS011;11574;51.058;13.712;2023-06-22T16:24:23;8.05;;;7.25;;
22814;SDS011;11574;51.058;13.712;2023-06-22T16:29:25;9.88;;;7.38;;
22814;SDS011;11574;51.058;13.712;2023-06-22T16:34:27;8.35;;;7.53;;
22814;SDS011;11574;51.058;13.712;2023-06-22T16:39:31;8.95;;;7.70;;
22814;SDS011;11574;51.058;13.712;2023-06-22T16:44:33;12.73;;;8.27;;
22814;SDS011;11574;51.058;13.712;2023-06-22T16:49:35;8.80;;;7.90;;
22814;SDS011;11574;51.058;13.712;2023-06-22T16:54:39;11.88;;;8.13;;
22814;SDS011;11574;51.058;13.712;2023-06-22T16:59:42;12.23;;;8.27;;
22814;SDS011;11574;51.058;13.712;2023-06-22T17:04:45;10.02;;;7.90;;
22814;SDS011;11574;51.058;13.712;2023-06-22T17:09:49;10.05;;;8.18;;
22814;SDS011;11574;51.058;13.712;2023-06-22T17:14:52;10.60;;;7.72;;
22814;SDS011;11574;51.058;13.712;2023-06-22T17:19:54;9.73;;;8.20;;
22814;SDS011;11574;51.058;13.712;2023-06-22T17:24:58;11.70;;;7.57;;
22814;SDS011;11574;51.058;13.712;2023-06-22T17:30:04;11.55;;;7.82;;
22814;SDS011;11574;51.058;13.712;2023-06-22T17:35:09;10.60;;;7.88;;
22814;SDS011;11574;51.058;13.712;2023-06-22T17:40:14;20.08;;;7.85;;
22814;SDS011;11574;51.058;13.712;2023-06-22T17:45:17;9.15;;;8.20;;
22814;SDS011;11574;51.058;13.712;2023-06-22T17:50:21;11.85;;;8.35;;
22814;SDS011;11574;51.058;13.712;2023-06-22T17:55:25;11.45;;;8.20;;
22814;SDS011;11574;51.058;13.712;2023-06-22T18:00:28;12.00;;;7.88;;
22814;SDS011;11574;51.058;13.712;2023-06-22T18:05:31;11.15;;;8.40;;
22814;SDS011;11574;51.058;13.712;2023-06-22T18:10:35;13.50;;;8.63;;
22814;SDS011;11574;51.058;13.712;2023-06-22T18:15:38;15.18;;;8.63;;
22814;SDS011;11574;51.058;13.712;2023-06-22T18:20:40;13.77;;;8.23;;
22814;SDS011;11574;51.058;13.712;2023-06-22T18:25:43;13.30;;;9.05;;
22814;SDS011;11574;51.058;13.712;2023-06-22T18:30:46;12.70;;;8.75;;
22814;SDS011;11574;51.058;13.712;2023-06-22T18:35:48;12.20;;;8.52;;
22814;SDS011;11574;51.058;13.712;2023-06-22T18:40:53;9.68;;;8.48;;
22814;SDS011;11574;51.058;13.712;2023-06-22T18:45:55;11.27;;;8.80;;
22814;SDS011;11574;51.058;13.712;2023-06-22T18:51:09;11.13;;;9.23;;
22814;SDS011;11574;51.058;13.712;2023-06-22T18:56:14;10.48;;;9.05;;
22814;SDS011;11574;51.058;13.712;2023-06-22T19:01:16;10.63;;;9.48;;
22814;SDS011;11574;51.058;13.712;2023-06-22T19:11:41;11.65;;;10.00;;
22814;SDS011;11574;51.058;13.712;2023-06-22T19:16:45;10.98;;;9.77;;
22814;SDS011;11574;51.058;13.712;2023-06-22T19:21:57;10.70;;;9.48;;
22814;SDS011;11574;51.058;13.712;2023-06-22T19:27:01;11.35;;;9.10;;
22814;SDS011;11574;51.058;13.712;2023-06-22T19:32:04;14.88;;;9.95;;
22814;SDS011;11574;51.058;13.712;2023-06-22T19:37:12;16.40;;;9.18;;
22814;SDS011;11574;51.058;13.712;2023-06-22T19:42:17;12.13;;;9.48;;
22814;SDS011;11574;51.058;13.712;2023-06-22T19:47:19;14.05;;;9.60;;
22814;SDS011;11574;51.058;13.712;2023-06-22T19:52:21;12.95;;;9.70;;
22814;SDS011;11574;51.058;13.712;2023-06-22T19:57:25;15.55;;;9.65;;
22814;SDS011;11574;51.058;13.712;2023-06-22T20:02:28;10.18;;;9.02;;
22814;SDS011;11574;51.058;13.712;2023-06-22T20:07:34;20.67;;;9.48;;
22814;SDS011;11574;51.058;13.712;2023-06-22T20:12:38;12.00;;;9.43;;
22814;SDS011;11574;51.058;13.712;2023-06-22T20:17:40;12.73;;;9.73;;
22814;SDS011;11574;51.058;13.712;2023-06-22T20:22:47;10.13;;;8.77;;
22814;SDS011;11574;51.058;13.712;2023-06-22T20:27:51;12.77;;;9.25;;
22814;SDS011;11574;51.058;13.712;2023-06-22T20:32:53;12.02;;;8.93;;
22814;SDS011;11574;51.058;13.712;2023-06-22T20:37:56;17.40;;;10.20;;
22814;SDS011;11574;51.058;13.712;2023-06-22T20:43:00;14.25;;;9.70;;
22814;SDS011;11574;51.058;13.712;2023-06-22T20:48:03;10.65;;;9.30;;
22814;SDS011;11574;51.058;13.712;2023-06-22T20:53:05;11.80;;;9.38;;
22814;SDS011;11574;51.058;13.712;2023-06-22T20:58:09;11.60;;;9.25;;
22814;SDS011;11574;51.058;13.712;2023-06-22T21:03:12;10.70;;;9.18;;
22814;SDS011;11574;51.058;13.712;2023-06-22T21:08:14;11.85;;;9.48;;
22814;SDS011;11574;51.058;13.712;2023-06-22T21:13:17;12.32;;;9.82;;
22814;SDS011;11574;51.058;13.712;2023-06-22T21:18:21;12.35;;;10.20;;
22814;SDS011;11574;51.058;13.712;2023-06-22T21:23:23;13.90;;;10.00;;
22814;SDS011;11574;51.058;13.712;2023-06-22T21:28:26;15.80;;;9.15;;
22814;SDS011;11574;51.058;13.712;2023-06-22T21:33:29;13.45;;;10.73;;
22814;SDS011;11574;51.058;13.712;2023-06-22T21:38:31;16.33;;;10.40;;
22814;SDS011;11574;51.058;13.712;2023-06-22T21:43:35;21.00;;;11.52;;
22814;SDS011;11574;51.058;13.712;2023-06-22T21:48:37;19.40;;;10.88;;
22814;SDS011;11574;51.058;13.712;2023-06-22T21:53:39;15.02;;;11.23;;
22814;SDS011;11574;51.058;13.712;2023-06-22T21:58:43;20.67;;;11.70;;
22814;SDS011;11574;51.058;13.712;2023-06-22T22:03:45;15.93;;;12.20;;
22814;SDS011;11574;51.058;13.712;2023-06-22T22:08:47;19.92;;;13.70;;
22814;SDS011;11574;51.058;13.712;2023-06-22T22:13:51;19.65;;;13.43;;
22814;SDS011;11574;51.058;13.712;2023-06-22T22:18:53;21.30;;;13.18;;
22814;SDS011;11574;51.058;13.712;2023-06-22T22:23:55;18.63;;;13.50;;
22814;SDS011;11574;51.058;13.712;2023-06-22T22:28:59;21.48;;;13.65;;
22814;SDS011;11574;51.058;13.712;2023-06-22T22:34:01;20.65;;;15.15;;
22814;SDS011;11574;51.058;13.712;2023-06-22T22:39:03;20.88;;;14.10;;
22814;SDS011;11574;51.058;13.712;2023-06-22T22:44:07;23.63;;;14.35;;
22814;SDS011;11574;51.058;13.712;2023-06-22T22:49:09;22.13;;;15.73;;
22814;SDS011;11574;51.058;13.712;2023-06-22T22:54:11;19.53;;;15.07;;
22814;SDS011;11574;51.058;13.712;2023-06-22T22:59:15;13.53;;;10.20;;
22814;SDS011;11574;51.058;13.712;2023-06-22T23:04:17;15.87;;;9.50;;
22814;SDS011;11574;51.058;13.712;2023-06-22T23:09:19;13.23;;;8.13;;
22814;SDS011;11574;51.058;13.712;2023-06-22T23:14:23;12.37;;;5.27;;
22814;SDS011;11574;51.058;13.712;2023-06-22T23:19:25;12.37;;;3.53;;
22814;SDS011;11574;51.058;13.712;2023-06-22T23:24:27;4.47;;;2.27;;
22814;SDS011;11574;51.058;13.712;2023-06-22T23:29:31;7.23;;;2.30;;
22814;SDS011;11574;51.058;13.712;2023-06-22T23:34:34;5.47;;;1.90;;
22814;SDS011;11574;51.058;13.712;2023-06-22T23:39:37;4.80;;;1.80;;
22814;SDS011;11574;51.058;13.712;2023-06-22T23:44:41;3.07;;;1.10;;
22814;SDS011;11574;51.058;13.712;2023-06-22T23:49:43;4.13;;;1.50;;
22814;SDS011;11574;51.058;13.712;2023-06-22T23:54:45;2.67;;;1.30;;
22814;SDS011;11574;51.058;13.712;2023-06-22T23:59:49;4.67;;;1.47;;
